sensor_id;sensor_type;location;lat;lon;timestamp;P1;durP1;ratioP1;P2;durP2;ratioP2
16775;SDS011;8505;49.456;8.164;2023-02-14T00:01:18;49.57;;;24.40;;
16775;SDS011;8505;49.456;8.164;2023-02-14T00:03:46;41.40;;;20.88;;
16775;SDS011;8505;49.456;8.164;2023-02-14T00:06:15;41.70;;;20.52;;
16775;SDS011;8505;49.456;8.164;2023-02-14T00:08:43;50.47;;;25.15;;
16775;SDS011;8505;49.456;8.164;2023-02-14T00:11:11;58.17;;;27.80;;
16775;SDS011;8505;49.456;8.164;2023-02-14T00:13:40;43.55;;;22.30;;
16775;SDS011;8505;49.456;8.164;2023-02-14T00:16:30;43.65;;;22.60;;
16775;SDS011;8505;49.456;8.164;2023-02-14T00:18:57;45.60;;;23.63;;
16775;SDS011;8505;49.456;8.164;2023-02-14T00:21:31;36.92;;;18.48;;
16775;SDS011;8505;49.456;8.164;2023-02-14T00:24:01;31.27;;;16.90;;
16775;SDS011;8505;49.456;8.164;2023-02-14T00:26:29;30.33;;;15.25;;
16775;SDS011;8505;49.456;8.164;2023-02-14T00:28:57;27.10;;;14.00;;
16775;SDS011;8505;49.456;8.164;2023-02-14T00:31:24;28.97;;;15.60;;
16775;SDS011;8505;49.456;8.164;2023-02-14T00:33:54;31.23;;;15.48;;
16775;SDS011;8505;49.456;8.164;2023-02-14T00:36:21;29.52;;;15.05;;
16775;SDS011;8505;49.456;8.164;2023-02-14T00:38:49;28.05;;;14.77;;
16775;SDS011;8505;49.456;8.164;2023-02-14T00:41:17;28.98;;;15.70;;
16775;SDS011;8505;49.456;8.164;2023-02-14T00:43:45;30.45;;;15.68;;
16775;SDS011;8505;49.456;8.164;2023-02-14T00:46:13;30.25;;;15.63;;
16775;SDS011;8505;49.456;8.164;2023-02-14T00:48:41;29.58;;;15.48;;
16775;SDS011;8505;49.456;8.164;2023-02-14T00:51:11;29.95;;;16.13;;
16775;SDS011;8505;49.456;8.164;2023-02-14T00:53:40;30.77;;;15.75;;
16775;SDS011;8505;49.456;8.164;2023-02-14T00:56:08;29.40;;;14.88;;
16775;SDS011;8505;49.456;8.164;2023-02-14T00:58:35;27.30;;;14.93;;
16775;SDS011;8505;49.456;8.164;2023-02-14T01:01:03;28.20;;;14.77;;
16775;SDS011;8505;49.456;8.164;2023-02-14T01:03:31;28.67;;;15.05;;
16775;SDS011;8505;49.456;8.164;2023-02-14T01:05:59;29.77;;;15.32;;
16775;SDS011;8505;49.456;8.164;2023-02-14T01:08:29;29.73;;;14.85;;
16775;SDS011;8505;49.456;8.164;2023-02-14T01:10:56;29.87;;;15.17;;
16775;SDS011;8505;49.456;8.164;2023-02-14T01:13:25;29.77;;;14.80;;
16775;SDS011;8505;49.456;8.164;2023-02-14T01:15:53;31.58;;;15.93;;
16775;SDS011;8505;49.456;8.164;2023-02-14T01:18:38;33.92;;;16.80;;
16775;SDS011;8505;49.456;8.164;2023-02-14T01:21:10;30.17;;;14.93;;
16775;SDS011;8505;49.456;8.164;2023-02-14T01:23:59;32.75;;;16.13;;
16775;SDS011;8505;49.456;8.164;2023-02-14T01:26:46;33.70;;;16.55;;
16775;SDS011;8505;49.456;8.164;2023-02-14T01:29:14;32.60;;;15.95;;
16775;SDS011;8505;49.456;8.164;2023-02-14T01:31:42;33.08;;;15.40;;
16775;SDS011;8505;49.456;8.164;2023-02-14T01:34:10;29.90;;;14.80;;
16775;SDS011;8505;49.456;8.164;2023-02-14T01:36:38;30.80;;;15.30;;
16775;SDS011;8505;49.456;8.164;2023-02-14T01:39:09;29.90;;;15.15;;
16775;SDS011;8505;49.456;8.164;2023-02-14T01:41:39;31.33;;;16.03;;
16775;SDS011;8505;49.456;8.164;2023-02-14T01:47:09;34.45;;;17.48;;
16775;SDS011;8505;49.456;8.164;2023-02-14T01:49:38;32.25;;;15.77;;
16775;SDS011;8505;49.456;8.164;2023-02-14T01:52:10;34.15;;;16.67;;
16775;SDS011;8505;49.456;8.164;2023-02-14T01:54:45;35.42;;;17.00;;
16775;SDS011;8505;49.456;8.164;2023-02-14T01:57:18;37.80;;;17.50;;
16775;SDS011;8505;49.456;8.164;2023-02-14T01:59:49;35.17;;;16.90;;
16775;SDS011;8505;49.456;8.164;2023-02-14T02:02:21;34.57;;;16.90;;
16775;SDS011;8505;49.456;8.164;2023-02-14T02:04:50;32.60;;;16.05;;
16775;SDS011;8505;49.456;8.164;2023-02-14T02:07:22;34.25;;;17.25;;
16775;SDS011;8505;49.456;8.164;2023-02-14T02:09:53;33.85;;;16.83;;
16775;SDS011;8505;49.456;8.164;2023-02-14T02:12:24;35.95;;;17.23;;
16775;SDS011;8505;49.456;8.164;2023-02-14T02:14:56;35.88;;;16.92;;
16775;SDS011;8505;49.456;8.164;2023-02-14T02:17:26;35.27;;;17.13;;
16775;SDS011;8505;49.456;8.164;2023-02-14T02:23:28;39.42;;;18.55;;
16775;SDS011;8505;49.456;8.164;2023-02-14T02:29:40;35.58;;;16.95;;
16775;SDS011;8505;49.456;8.164;2023-02-14T02:35:50;32.13;;;15.68;;
16775;SDS011;8505;49.456;8.164;2023-02-14T02:38:30;31.30;;;16.38;;
16775;SDS011;8505;49.456;8.164;2023-02-14T02:41:13;32.28;;;16.52;;
16775;SDS011;8505;49.456;8.164;2023-02-14T02:43:51;31.23;;;15.35;;
16775;SDS011;8505;49.456;8.164;2023-02-14T02:46:23;31.00;;;15.75;;
16775;SDS011;8505;49.456;8.164;2023-02-14T02:49:19;31.65;;;16.05;;
16775;SDS011;8505;49.456;8.164;2023-02-14T02:52:12;34.30;;;16.63;;
16775;SDS011;8505;49.456;8.164;2023-02-14T02:55:04;33.80;;;17.30;;
16775;SDS011;8505;49.456;8.164;2023-02-14T02:57:38;32.73;;;15.93;;
16775;SDS011;8505;49.456;8.164;2023-02-14T03:00:09;30.60;;;16.00;;
16775;SDS011;8505;49.456;8.164;2023-02-14T03:02:40;33.03;;;15.20;;
16775;SDS011;8505;49.456;8.164;2023-02-14T03:05:28;29.00;;;14.50;;
16775;SDS011;8505;49.456;8.164;2023-02-14T03:07:58;30.77;;;14.75;;
16775;SDS011;8505;49.456;8.164;2023-02-14T03:10:26;31.55;;;16.17;;
16775;SDS011;8505;49.456;8.164;2023-02-14T03:16:07;31.83;;;15.85;;
16775;SDS011;8505;49.456;8.164;2023-02-14T03:18:50;34.03;;;16.73;;
16775;SDS011;8505;49.456;8.164;2023-02-14T03:21:32;34.08;;;16.80;;
16775;SDS011;8505;49.456;8.164;2023-02-14T03:24:07;32.67;;;16.43;;
16775;SDS011;8505;49.456;8.164;2023-02-14T03:26:43;35.30;;;16.80;;
16775;SDS011;8505;49.456;8.164;2023-02-14T03:29:18;36.63;;;16.92;;
16775;SDS011;8505;49.456;8.164;2023-02-14T03:31:54;36.45;;;17.48;;
16775;SDS011;8505;49.456;8.164;2023-02-14T03:34:30;41.67;;;18.75;;
16775;SDS011;8505;49.456;8.164;2023-02-14T03:37:02;38.22;;;17.77;;
16775;SDS011;8505;49.456;8.164;2023-02-14T03:39:38;37.45;;;18.20;;
16775;SDS011;8505;49.456;8.164;2023-02-14T03:42:12;36.88;;;16.98;;
16775;SDS011;8505;49.456;8.164;2023-02-14T03:44:44;37.00;;;17.08;;
16775;SDS011;8505;49.456;8.164;2023-02-14T03:47:15;40.08;;;18.35;;
16775;SDS011;8505;49.456;8.164;2023-02-14T03:49:47;43.15;;;18.45;;
16775;SDS011;8505;49.456;8.164;2023-02-14T03:52:19;42.80;;;18.70;;
16775;SDS011;8505;49.456;8.164;2023-02-14T03:54:50;42.65;;;18.88;;
16775;SDS011;8505;49.456;8.164;2023-02-14T03:57:20;37.27;;;16.47;;
16775;SDS011;8505;49.456;8.164;2023-02-14T03:59:51;38.55;;;17.17;;
16775;SDS011;8505;49.456;8.164;2023-02-14T04:02:22;41.65;;;17.80;;
16775;SDS011;8505;49.456;8.164;2023-02-14T04:04:53;38.83;;;18.20;;
16775;SDS011;8505;49.456;8.164;2023-02-14T04:07:24;39.97;;;18.10;;
16775;SDS011;8505;49.456;8.164;2023-02-14T04:09:53;41.63;;;18.13;;
16775;SDS011;8505;49.456;8.164;2023-02-14T04:12:21;40.35;;;17.90;;
16775;SDS011;8505;49.456;8.164;2023-02-14T04:15:02;39.97;;;19.20;;
16775;SDS011;8505;49.456;8.164;2023-02-14T04:17:31;39.75;;;18.73;;
16775;SDS011;8505;49.456;8.164;2023-02-14T04:20:16;37.53;;;17.77;;
16775;SDS011;8505;49.456;8.164;2023-02-14T04:22:44;37.55;;;18.17;;
16775;SDS011;8505;49.456;8.164;2023-02-14T04:25:13;39.28;;;17.38;;
16775;SDS011;8505;49.456;8.164;2023-02-14T04:27:42;32.67;;;16.67;;
16775;SDS011;8505;49.456;8.164;2023-02-14T04:30:10;33.95;;;16.10;;
16775;SDS011;8505;49.456;8.164;2023-02-14T04:32:38;35.20;;;16.73;;
16775;SDS011;8505;49.456;8.164;2023-02-14T04:35:06;35.45;;;17.52;;
16775;SDS011;8505;49.456;8.164;2023-02-14T04:37:34;34.60;;;16.92;;
16775;SDS011;8505;49.456;8.164;2023-02-14T04:40:02;27.95;;;14.38;;
16775;SDS011;8505;49.456;8.164;2023-02-14T04:42:31;33.72;;;16.13;;
16775;SDS011;8505;49.456;8.164;2023-02-14T04:44:59;29.27;;;15.13;;
16775;SDS011;8505;49.456;8.164;2023-02-14T04:47:29;30.48;;;15.70;;
16775;SDS011;8505;49.456;8.164;2023-02-14T04:49:57;30.60;;;15.20;;
16775;SDS011;8505;49.456;8.164;2023-02-14T04:52:24;30.02;;;14.68;;
16775;SDS011;8505;49.456;8.164;2023-02-14T04:54:52;30.60;;;15.43;;
16775;SDS011;8505;49.456;8.164;2023-02-14T04:57:20;30.60;;;14.88;;
16775;SDS011;8505;49.456;8.164;2023-02-14T04:59:49;29.90;;;14.40;;
16775;SDS011;8505;49.456;8.164;2023-02-14T05:02:16;29.92;;;15.15;;
16775;SDS011;8505;49.456;8.164;2023-02-14T05:04:44;34.08;;;15.45;;
16775;SDS011;8505;49.456;8.164;2023-02-14T05:07:14;30.85;;;15.90;;
16775;SDS011;8505;49.456;8.164;2023-02-14T05:09:42;31.92;;;15.82;;
16775;SDS011;8505;49.456;8.164;2023-02-14T05:12:10;32.30;;;15.43;;
16775;SDS011;8505;49.456;8.164;2023-02-14T05:14:37;27.95;;;14.48;;
16775;SDS011;8505;49.456;8.164;2023-02-14T05:17:06;31.20;;;14.88;;
16775;SDS011;8505;49.456;8.164;2023-02-14T05:19:34;32.83;;;15.45;;
16775;SDS011;8505;49.456;8.164;2023-02-14T05:22:02;31.83;;;14.82;;
16775;SDS011;8505;49.456;8.164;2023-02-14T05:24:30;30.60;;;14.95;;
16775;SDS011;8505;49.456;8.164;2023-02-14T05:26:57;30.67;;;15.13;;
16775;SDS011;8505;49.456;8.164;2023-02-14T05:29:25;30.98;;;15.77;;
16775;SDS011;8505;49.456;8.164;2023-02-14T05:31:53;31.87;;;16.30;;
16775;SDS011;8505;49.456;8.164;2023-02-14T05:34:22;38.38;;;17.48;;
16775;SDS011;8505;49.456;8.164;2023-02-14T05:36:49;38.03;;;18.63;;
16775;SDS011;8505;49.456;8.164;2023-02-14T05:39:17;34.03;;;16.95;;
16775;SDS011;8505;49.456;8.164;2023-02-14T05:41:45;36.10;;;17.35;;
16775;SDS011;8505;49.456;8.164;2023-02-14T05:44:12;35.05;;;16.85;;
16775;SDS011;8505;49.456;8.164;2023-02-14T05:46:40;35.35;;;16.63;;
16775;SDS011;8505;49.456;8.164;2023-02-14T05:49:08;33.85;;;16.80;;
16775;SDS011;8505;49.456;8.164;2023-02-14T05:51:37;39.40;;;18.05;;
16775;SDS011;8505;49.456;8.164;2023-02-14T05:54:04;39.77;;;18.47;;
16775;SDS011;8505;49.456;8.164;2023-02-14T05:56:35;40.05;;;18.75;;
16775;SDS011;8505;49.456;8.164;2023-02-14T05:59:02;44.28;;;19.98;;
16775;SDS011;8505;49.456;8.164;2023-02-14T06:01:30;42.42;;;20.55;;
16775;SDS011;8505;49.456;8.164;2023-02-14T06:03:58;54.97;;;23.35;;
16775;SDS011;8505;49.456;8.164;2023-02-14T06:06:25;49.58;;;22.60;;
16775;SDS011;8505;49.456;8.164;2023-02-14T06:08:54;54.42;;;23.52;;
16775;SDS011;8505;49.456;8.164;2023-02-14T06:11:22;54.40;;;23.65;;
16775;SDS011;8505;49.456;8.164;2023-02-14T06:13:49;56.33;;;23.95;;
16775;SDS011;8505;49.456;8.164;2023-02-14T06:16:17;58.15;;;24.20;;
16775;SDS011;8505;49.456;8.164;2023-02-14T06:18:45;56.30;;;24.73;;
16775;SDS011;8505;49.456;8.164;2023-02-14T06:21:12;56.40;;;24.08;;
16775;SDS011;8505;49.456;8.164;2023-02-14T06:23:40;55.78;;;23.95;;
16775;SDS011;8505;49.456;8.164;2023-02-14T06:26:09;51.55;;;22.67;;
16775;SDS011;8505;49.456;8.164;2023-02-14T06:28:37;63.40;;;23.10;;
16775;SDS011;8505;49.456;8.164;2023-02-14T06:31:04;56.03;;;24.27;;
16775;SDS011;8505;49.456;8.164;2023-02-14T06:33:32;57.58;;;25.02;;
16775;SDS011;8505;49.456;8.164;2023-02-14T06:36:00;57.55;;;24.83;;
16775;SDS011;8505;49.456;8.164;2023-02-14T06:38:27;51.50;;;24.33;;
16775;SDS011;8505;49.456;8.164;2023-02-14T06:41:01;55.97;;;25.20;;
16775;SDS011;8505;49.456;8.164;2023-02-14T06:43:31;56.67;;;24.98;;
16775;SDS011;8505;49.456;8.164;2023-02-14T06:45:59;54.08;;;24.08;;
16775;SDS011;8505;49.456;8.164;2023-02-14T06:48:27;54.80;;;25.35;;
16775;SDS011;8505;49.456;8.164;2023-02-14T06:50:55;53.35;;;25.27;;
16775;SDS011;8505;49.456;8.164;2023-02-14T06:53:23;58.88;;;26.30;;
16775;SDS011;8505;49.456;8.164;2023-02-14T06:55:51;70.68;;;26.35;;
16775;SDS011;8505;49.456;8.164;2023-02-14T06:58:19;60.53;;;27.67;;
16775;SDS011;8505;49.456;8.164;2023-02-14T07:00:48;55.28;;;24.50;;
16775;SDS011;8505;49.456;8.164;2023-02-14T07:03:16;52.92;;;24.55;;
16775;SDS011;8505;49.456;8.164;2023-02-14T07:05:43;57.83;;;26.00;;
16775;SDS011;8505;49.456;8.164;2023-02-14T07:08:11;54.92;;;25.77;;
16775;SDS011;8505;49.456;8.164;2023-02-14T07:10:38;57.77;;;26.63;;
16775;SDS011;8505;49.456;8.164;2023-02-14T07:13:06;67.60;;;27.13;;
16775;SDS011;8505;49.456;8.164;2023-02-14T07:15:34;57.17;;;25.67;;
16775;SDS011;8505;49.456;8.164;2023-02-14T07:18:03;72.82;;;28.25;;
16775;SDS011;8505;49.456;8.164;2023-02-14T07:20:33;62.70;;;28.27;;
16775;SDS011;8505;49.456;8.164;2023-02-14T07:23:01;63.97;;;28.30;;
16775;SDS011;8505;49.456;8.164;2023-02-14T07:25:29;59.33;;;26.33;;
16775;SDS011;8505;49.456;8.164;2023-02-14T07:27:56;60.90;;;26.27;;
16775;SDS011;8505;49.456;8.164;2023-02-14T07:30:24;57.63;;;26.43;;
16775;SDS011;8505;49.456;8.164;2023-02-14T07:32:52;55.67;;;24.47;;
16775;SDS011;8505;49.456;8.164;2023-02-14T07:35:21;55.42;;;25.35;;
16775;SDS011;8505;49.456;8.164;2023-02-14T07:37:49;52.88;;;24.15;;
16775;SDS011;8505;49.456;8.164;2023-02-14T07:40:17;66.20;;;25.52;;
16775;SDS011;8505;49.456;8.164;2023-02-14T07:42:50;61.22;;;27.08;;
16775;SDS011;8505;49.456;8.164;2023-02-14T07:45:19;64.15;;;27.77;;
16775;SDS011;8505;49.456;8.164;2023-02-14T07:47:47;62.95;;;27.42;;
16775;SDS011;8505;49.456;8.164;2023-02-14T07:50:16;60.67;;;27.53;;
16775;SDS011;8505;49.456;8.164;2023-02-14T07:52:45;63.00;;;27.73;;
16775;SDS011;8505;49.456;8.164;2023-02-14T07:55:13;64.60;;;28.42;;
16775;SDS011;8505;49.456;8.164;2023-02-14T07:57:42;63.65;;;28.33;;
16775;SDS011;8505;49.456;8.164;2023-02-14T08:00:10;60.63;;;27.23;;
16775;SDS011;8505;49.456;8.164;2023-02-14T08:02:40;58.08;;;27.98;;
16775;SDS011;8505;49.456;8.164;2023-02-14T08:05:07;59.65;;;27.98;;
16775;SDS011;8505;49.456;8.164;2023-02-14T08:07:35;77.47;;;31.02;;
16775;SDS011;8505;49.456;8.164;2023-02-14T08:10:05;71.90;;;29.90;;
16775;SDS011;8505;49.456;8.164;2023-02-14T08:12:33;57.07;;;26.63;;
16775;SDS011;8505;49.456;8.164;2023-02-14T08:15:18;65.90;;;28.48;;
16775;SDS011;8505;49.456;8.164;2023-02-14T08:18:04;68.20;;;28.30;;
16775;SDS011;8505;49.456;8.164;2023-02-14T08:20:31;66.40;;;29.58;;
16775;SDS011;8505;49.456;8.164;2023-02-14T08:22:59;68.70;;;30.92;;
16775;SDS011;8505;49.456;8.164;2023-02-14T08:25:28;70.93;;;30.60;;
16775;SDS011;8505;49.456;8.164;2023-02-14T08:27:56;179.55;;;33.80;;
16775;SDS011;8505;49.456;8.164;2023-02-14T08:30:23;70.40;;;29.63;;
16775;SDS011;8505;49.456;8.164;2023-02-14T08:32:52;65.05;;;26.23;;
16775;SDS011;8505;49.456;8.164;2023-02-14T08:35:19;64.10;;;28.50;;
16775;SDS011;8505;49.456;8.164;2023-02-14T08:37:49;62.85;;;28.55;;
16775;SDS011;8505;49.456;8.164;2023-02-14T08:40:17;76.30;;;29.90;;
16775;SDS011;8505;49.456;8.164;2023-02-14T08:42:46;71.57;;;31.48;;
16775;SDS011;8505;49.456;8.164;2023-02-14T08:45:14;67.22;;;30.70;;
16775;SDS011;8505;49.456;8.164;2023-02-14T08:47:41;60.35;;;28.58;;
16775;SDS011;8505;49.456;8.164;2023-02-14T08:50:10;60.53;;;28.77;;
16775;SDS011;8505;49.456;8.164;2023-02-14T08:52:39;65.22;;;29.13;;
16775;SDS011;8505;49.456;8.164;2023-02-14T08:55:09;59.23;;;28.17;;
16775;SDS011;8505;49.456;8.164;2023-02-14T08:57:37;60.40;;;28.08;;
16775;SDS011;8505;49.456;8.164;2023-02-14T09:00:07;71.60;;;27.95;;
16775;SDS011;8505;49.456;8.164;2023-02-14T09:02:36;74.13;;;28.52;;
16775;SDS011;8505;49.456;8.164;2023-02-14T09:05:03;73.15;;;29.40;;
16775;SDS011;8505;49.456;8.164;2023-02-14T09:07:33;72.35;;;30.05;;
16775;SDS011;8505;49.456;8.164;2023-02-14T09:10:01;71.90;;;32.50;;
16775;SDS011;8505;49.456;8.164;2023-02-14T09:12:29;66.60;;;30.83;;
16775;SDS011;8505;49.456;8.164;2023-02-14T09:14:57;88.00;;;32.20;;
16775;SDS011;8505;49.456;8.164;2023-02-14T09:17:26;63.63;;;29.48;;
16775;SDS011;8505;49.456;8.164;2023-02-14T09:19:53;62.58;;;28.98;;
16775;SDS011;8505;49.456;8.164;2023-02-14T09:22:21;63.33;;;29.17;;
16775;SDS011;8505;49.456;8.164;2023-02-14T09:24:49;61.28;;;30.02;;
16775;SDS011;8505;49.456;8.164;2023-02-14T09:27:16;68.80;;;31.70;;
16775;SDS011;8505;49.456;8.164;2023-02-14T09:29:44;76.22;;;31.38;;
16775;SDS011;8505;49.456;8.164;2023-02-14T09:32:12;149.73;;;37.55;;
16775;SDS011;8505;49.456;8.164;2023-02-14T09:34:43;73.15;;;32.22;;
16775;SDS011;8505;49.456;8.164;2023-02-14T09:37:28;67.88;;;31.42;;
16775;SDS011;8505;49.456;8.164;2023-02-14T09:40:14;79.60;;;32.30;;
16775;SDS011;8505;49.456;8.164;2023-02-14T09:42:48;110.95;;;31.63;;
16775;SDS011;8505;49.456;8.164;2023-02-14T09:45:22;92.78;;;33.25;;
16775;SDS011;8505;49.456;8.164;2023-02-14T09:47:53;69.55;;;30.42;;
16775;SDS011;8505;49.456;8.164;2023-02-14T09:50:26;71.03;;;31.30;;
16775;SDS011;8505;49.456;8.164;2023-02-14T09:53:00;71.32;;;31.80;;
16775;SDS011;8505;49.456;8.164;2023-02-14T09:55:34;70.17;;;31.90;;
16775;SDS011;8505;49.456;8.164;2023-02-14T09:58:11;74.82;;;34.80;;
16775;SDS011;8505;49.456;8.164;2023-02-14T10:00:45;72.20;;;33.38;;
16775;SDS011;8505;49.456;8.164;2023-02-14T10:03:30;71.35;;;31.63;;
16775;SDS011;8505;49.456;8.164;2023-02-14T10:06:06;72.75;;;31.90;;
16775;SDS011;8505;49.456;8.164;2023-02-14T10:08:46;69.13;;;30.70;;
16775;SDS011;8505;49.456;8.164;2023-02-14T10:11:23;68.75;;;31.40;;
16775;SDS011;8505;49.456;8.164;2023-02-14T10:13:52;83.55;;;38.05;;
16775;SDS011;8505;49.456;8.164;2023-02-14T10:16:23;71.32;;;33.85;;
16775;SDS011;8505;49.456;8.164;2023-02-14T10:18:55;73.70;;;33.25;;
16775;SDS011;8505;49.456;8.164;2023-02-14T10:21:30;71.47;;;32.70;;
16775;SDS011;8505;49.456;8.164;2023-02-14T10:24:05;67.13;;;30.10;;
16775;SDS011;8505;49.456;8.164;2023-02-14T10:26:40;69.57;;;32.67;;
16775;SDS011;8505;49.456;8.164;2023-02-14T10:29:10;72.60;;;32.90;;
16775;SDS011;8505;49.456;8.164;2023-02-14T10:31:40;72.57;;;32.75;;
16775;SDS011;8505;49.456;8.164;2023-02-14T10:34:16;68.55;;;32.45;;
16775;SDS011;8505;49.456;8.164;2023-02-14T10:36:58;65.63;;;31.63;;
16775;SDS011;8505;49.456;8.164;2023-02-14T10:39:38;72.18;;;32.00;;
16775;SDS011;8505;49.456;8.164;2023-02-14T10:42:20;70.63;;;33.38;;
16775;SDS011;8505;49.456;8.164;2023-02-14T10:44:58;70.35;;;31.63;;
16775;SDS011;8505;49.456;8.164;2023-02-14T10:47:39;68.63;;;32.20;;
16775;SDS011;8505;49.456;8.164;2023-02-14T10:50:14;68.65;;;32.97;;
16775;SDS011;8505;49.456;8.164;2023-02-14T10:52:47;71.10;;;33.17;;
16775;SDS011;8505;49.456;8.164;2023-02-14T10:55:25;66.82;;;31.92;;
16775;SDS011;8505;49.456;8.164;2023-02-14T10:58:05;68.75;;;32.08;;
16775;SDS011;8505;49.456;8.164;2023-02-14T11:00:34;70.32;;;31.73;;
16775;SDS011;8505;49.456;8.164;2023-02-14T11:03:06;66.28;;;31.50;;
16775;SDS011;8505;49.456;8.164;2023-02-14T11:05:37;67.45;;;31.55;;
16775;SDS011;8505;49.456;8.164;2023-02-14T11:08:14;63.30;;;31.10;;
16775;SDS011;8505;49.456;8.164;2023-02-14T11:10:48;69.43;;;32.88;;
16775;SDS011;8505;49.456;8.164;2023-02-14T11:13:25;62.00;;;30.17;;
16775;SDS011;8505;49.456;8.164;2023-02-14T11:15:58;67.47;;;31.20;;
16775;SDS011;8505;49.456;8.164;2023-02-14T11:18:28;63.50;;;30.75;;
16775;SDS011;8505;49.456;8.164;2023-02-14T11:20:59;66.60;;;31.15;;
16775;SDS011;8505;49.456;8.164;2023-02-14T11:23:32;52.42;;;25.75;;
16775;SDS011;8505;49.456;8.164;2023-02-14T11:26:00;59.83;;;29.02;;
16775;SDS011;8505;49.456;8.164;2023-02-14T11:28:29;62.10;;;30.70;;
16775;SDS011;8505;49.456;8.164;2023-02-14T11:30:58;70.28;;;31.67;;
16775;SDS011;8505;49.456;8.164;2023-02-14T11:33:32;66.13;;;31.65;;
16775;SDS011;8505;49.456;8.164;2023-02-14T11:36:04;67.15;;;32.20;;
16775;SDS011;8505;49.456;8.164;2023-02-14T11:38:40;64.85;;;31.98;;
16775;SDS011;8505;49.456;8.164;2023-02-14T11:41:12;61.08;;;30.58;;
16775;SDS011;8505;49.456;8.164;2023-02-14T11:43:42;64.07;;;31.83;;
16775;SDS011;8505;49.456;8.164;2023-02-14T11:46:14;63.17;;;31.55;;
16775;SDS011;8505;49.456;8.164;2023-02-14T11:48:55;63.78;;;30.95;;
16775;SDS011;8505;49.456;8.164;2023-02-14T11:51:25;63.60;;;31.35;;
16775;SDS011;8505;49.456;8.164;2023-02-14T11:53:58;64.05;;;31.88;;
16775;SDS011;8505;49.456;8.164;2023-02-14T11:56:43;65.57;;;32.88;;
16775;SDS011;8505;49.456;8.164;2023-02-14T11:59:21;67.50;;;32.65;;
16775;SDS011;8505;49.456;8.164;2023-02-14T12:01:53;70.90;;;34.30;;
16775;SDS011;8505;49.456;8.164;2023-02-14T12:04:24;73.88;;;34.58;;
16775;SDS011;8505;49.456;8.164;2023-02-14T12:07:14;72.47;;;34.25;;
16775;SDS011;8505;49.456;8.164;2023-02-14T12:09:46;80.03;;;35.50;;
16775;SDS011;8505;49.456;8.164;2023-02-14T12:12:15;74.95;;;35.28;;
16775;SDS011;8505;49.456;8.164;2023-02-14T12:14:45;70.75;;;33.13;;
16775;SDS011;8505;49.456;8.164;2023-02-14T12:17:17;77.00;;;34.03;;
16775;SDS011;8505;49.456;8.164;2023-02-14T12:19:52;77.65;;;33.20;;
16775;SDS011;8505;49.456;8.164;2023-02-14T12:22:26;79.90;;;33.03;;
16775;SDS011;8505;49.456;8.164;2023-02-14T12:25:02;71.82;;;33.38;;
16775;SDS011;8505;49.456;8.164;2023-02-14T12:27:42;68.05;;;33.25;;
16775;SDS011;8505;49.456;8.164;2023-02-14T12:30:14;67.45;;;34.33;;
16775;SDS011;8505;49.456;8.164;2023-02-14T12:32:46;333.80;;;60.95;;
16775;SDS011;8505;49.456;8.164;2023-02-14T12:35:15;85.77;;;36.60;;
16775;SDS011;8505;49.456;8.164;2023-02-14T12:37:48;93.35;;;37.20;;
16775;SDS011;8505;49.456;8.164;2023-02-14T12:40:33;88.27;;;36.10;;
16775;SDS011;8505;49.456;8.164;2023-02-14T12:43:24;72.97;;;33.50;;
16775;SDS011;8505;49.456;8.164;2023-02-14T12:46:13;66.35;;;34.97;;
16775;SDS011;8505;49.456;8.164;2023-02-14T12:48:53;69.63;;;35.10;;
16775;SDS011;8505;49.456;8.164;2023-02-14T12:51:32;75.03;;;37.67;;
16775;SDS011;8505;49.456;8.164;2023-02-14T12:54:13;69.97;;;35.97;;
16775;SDS011;8505;49.456;8.164;2023-02-14T12:56:56;66.95;;;34.20;;
16775;SDS011;8505;49.456;8.164;2023-02-14T12:59:31;64.13;;;33.90;;
16775;SDS011;8505;49.456;8.164;2023-02-14T13:02:32;69.65;;;35.47;;
16775;SDS011;8505;49.456;8.164;2023-02-14T13:05:15;66.60;;;35.10;;
16775;SDS011;8505;49.456;8.164;2023-02-14T13:07:52;71.22;;;35.95;;
16775;SDS011;8505;49.456;8.164;2023-02-14T13:10:34;67.53;;;35.83;;
16775;SDS011;8505;49.456;8.164;2023-02-14T13:13:17;68.67;;;34.80;;
16775;SDS011;8505;49.456;8.164;2023-02-14T13:15:52;71.95;;;36.90;;
16775;SDS011;8505;49.456;8.164;2023-02-14T13:18:29;72.82;;;37.28;;
16775;SDS011;8505;49.456;8.164;2023-02-14T13:21:05;67.20;;;35.47;;
16775;SDS011;8505;49.456;8.164;2023-02-14T13:23:37;69.60;;;36.33;;
16775;SDS011;8505;49.456;8.164;2023-02-14T13:26:09;70.43;;;35.63;;
16775;SDS011;8505;49.456;8.164;2023-02-14T13:28:43;68.90;;;35.28;;
16775;SDS011;8505;49.456;8.164;2023-02-14T13:31:17;71.80;;;35.50;;
16775;SDS011;8505;49.456;8.164;2023-02-14T13:33:47;72.25;;;37.10;;
16775;SDS011;8505;49.456;8.164;2023-02-14T13:36:17;70.00;;;35.38;;
16775;SDS011;8505;49.456;8.164;2023-02-14T13:38:49;74.63;;;36.08;;
16775;SDS011;8505;49.456;8.164;2023-02-14T13:41:25;73.37;;;36.00;;
16775;SDS011;8505;49.456;8.164;2023-02-14T13:43:55;73.88;;;36.88;;
16775;SDS011;8505;49.456;8.164;2023-02-14T13:46:44;76.85;;;37.08;;
16775;SDS011;8505;49.456;8.164;2023-02-14T13:49:23;68.20;;;34.80;;
16775;SDS011;8505;49.456;8.164;2023-02-14T13:51:54;67.47;;;35.20;;
16775;SDS011;8505;49.456;8.164;2023-02-14T13:57:22;76.70;;;35.28;;
16775;SDS011;8505;49.456;8.164;2023-02-14T14:02:59;72.90;;;36.72;;
16775;SDS011;8505;49.456;8.164;2023-02-14T14:16:18;73.90;;;36.35;;
16775;SDS011;8505;49.456;8.164;2023-02-14T14:18:53;74.10;;;37.08;;
16775;SDS011;8505;49.456;8.164;2023-02-14T14:21:23;73.93;;;38.58;;
16775;SDS011;8505;49.456;8.164;2023-02-14T14:26:49;71.85;;;37.33;;
16775;SDS011;8505;49.456;8.164;2023-02-14T14:29:24;73.90;;;37.85;;
16775;SDS011;8505;49.456;8.164;2023-02-14T14:31:56;72.78;;;37.92;;
16775;SDS011;8505;49.456;8.164;2023-02-14T14:34:27;76.43;;;38.47;;
16775;SDS011;8505;49.456;8.164;2023-02-14T14:37:01;72.90;;;37.50;;
16775;SDS011;8505;49.456;8.164;2023-02-14T14:39:31;73.13;;;37.17;;
16775;SDS011;8505;49.456;8.164;2023-02-14T14:42:04;71.90;;;37.15;;
16775;SDS011;8505;49.456;8.164;2023-02-14T14:44:33;73.90;;;37.85;;
16775;SDS011;8505;49.456;8.164;2023-02-14T14:47:02;79.13;;;40.22;;
16775;SDS011;8505;49.456;8.164;2023-02-14T14:49:32;77.82;;;39.60;;
16775;SDS011;8505;49.456;8.164;2023-02-14T14:52:00;80.03;;;40.28;;
16775;SDS011;8505;49.456;8.164;2023-02-14T14:54:28;78.60;;;40.17;;
16775;SDS011;8505;49.456;8.164;2023-02-14T14:56:58;72.32;;;39.08;;
16775;SDS011;8505;49.456;8.164;2023-02-14T14:59:28;77.05;;;39.83;;
16775;SDS011;8505;49.456;8.164;2023-02-14T15:02:00;74.95;;;38.63;;
16775;SDS011;8505;49.456;8.164;2023-02-14T15:04:29;75.30;;;39.47;;
16775;SDS011;8505;49.456;8.164;2023-02-14T15:07:17;78.80;;;42.22;;
16775;SDS011;8505;49.456;8.164;2023-02-14T15:09:46;73.72;;;39.13;;
16775;SDS011;8505;49.456;8.164;2023-02-14T15:12:15;72.80;;;38.67;;
16775;SDS011;8505;49.456;8.164;2023-02-14T15:15:03;76.15;;;39.60;;
16775;SDS011;8505;49.456;8.164;2023-02-14T15:17:35;78.85;;;40.17;;
16775;SDS011;8505;49.456;8.164;2023-02-14T15:20:05;77.20;;;40.10;;
16775;SDS011;8505;49.456;8.164;2023-02-14T15:22:39;84.35;;;41.63;;
16775;SDS011;8505;49.456;8.164;2023-02-14T15:25:12;83.35;;;43.30;;
16775;SDS011;8505;49.456;8.164;2023-02-14T15:27:44;87.10;;;44.40;;
16775;SDS011;8505;49.456;8.164;2023-02-14T15:30:20;89.18;;;45.78;;
16775;SDS011;8505;49.456;8.164;2023-02-14T15:32:51;83.97;;;41.63;;
16775;SDS011;8505;49.456;8.164;2023-02-14T15:35:20;77.97;;;41.03;;
16775;SDS011;8505;49.456;8.164;2023-02-14T15:37:53;80.72;;;41.03;;